Terminal Aerodrome Forecast
Issued by NWS Nashville, TN

Home | Current Version | Previous Version | Text Only | Print | Product List | Glossary On
Versions: 1 2 3 4 5 6 7 8 9 10 11 12 13 14 15 16 17 18 19 20 21 22 23 24 25 26 27 28 29 30 31 32
000
FTUS44 KOHX 022300
TAFCSV
TAF
KCSV 022339Z 0300/0324 VRB05KT P6SM BKN020
     FM030100 VRB05KT P6SM SCT030
     FM030700 02002KT 4SM BR SCT100
      TEMPO 0311/0313 1/2SM FG BKN007 BKN150
     FM031400 35003KT P6SM BKN020 BKN150
     FM031700 02003KT P6SM BKN050=

USA.gov is the U.S. government's official web portal to all federal, state and local government web resources and services.